Aérodrome :
LOGIN :

S'inscrire | Disclaimer

   EN    FR    IT 

 










Légende :    VFR   VFR Marginal   IFR   IFR Intensif   IFR Très Intensif
Visi : 
Plafond : 
>= 8 km
>= 3000ft
5 à 8 km
1000 à 3000 ft
1500m à 5 km
500 à 1000 ft
800 à 1500m
200 à 500 ft
< 800m
< 200 ft
Symboles :   Orages  Brouillard  Fortes neiges  Fortes précipitations  Vent > 20 kt
SIGMETs :   Divers  Orages  Givrage  Turbulence  Onde Orograph.  Cendres Volcan.






- Altitude de l'aérodrome : 156 ft
- Code IATA : LCC


LIBN - Lecce Galatine (military)

DERNIER METAR :
  • 262355Z VRB01KT CAVOK 15/14 Q1021 RMK SCT SCT080 VIS MIN 9999 WIND THR14 VRB02KT WIND THR32 VRB02KT BLU

METARs EXPIRÉS :
  • 262255Z 32005KT CAVOK 16/14 Q1021 RMK SCT SCT070 VIS MIN 9999 WIND THR14 32005KT WIND THR32 31005KT BLU
  • 262155Z 34009KT CAVOK 16/15 Q1021 RMK FEW FEW080 VIS MIN 9999 WIND THR14 33009KT WIND THR32 34008KT BLU

Prévision TAF périmée.



MET'MAP, la Météo Aéronautique d'un coup d'oeil ! - Copyright ORBIFLY Décembre 2007 - Disclaimer

ORBIFLY MET'MAP TEAM :

Programmation & Développement : Alexandra Zaïnal
Sur une idée originale de : Baudouin d'Aumeries
Assistance à la programmation : Marc-Olivier Méhu
Soutien technique & logistique : Manuel Goepfert

Contact : metmap@orbifly.com




SOURCES & CREDITS :

   NOAA